sensor_id;sensor_type;location;lat;lon;timestamp;temperature;humidity
2363;DHT22;64265;51.664;7.626;2023-10-19T00:00:03;21.60;98.00
2363;DHT22;64265;51.664;7.626;2023-10-19T00:02:44;21.50;97.90
2363;DHT22;64265;51.664;7.626;2023-10-19T00:05:11;21.50;97.90
2363;DHT22;64265;51.664;7.626;2023-10-19T00:07:41;21.50;97.90
2363;DHT22;64265;51.664;7.626;2023-10-19T00:10:07;21.50;97.90
2363;DHT22;64265;51.664;7.626;2023-10-19T00:12:35;21.50;97.80
2363;DHT22;64265;51.664;7.626;2023-10-19T00:15:02;21.50;97.80
2363;DHT22;64265;51.664;7.626;2023-10-19T00:17:29;21.50;97.80
2363;DHT22;64265;51.664;7.626;2023-10-19T00:19:58;21.40;97.80
2363;DHT22;64265;51.664;7.626;2023-10-19T00:22:35;21.40;97.80
2363;DHT22;64265;51.664;7.626;2023-10-19T00:25:04;21.40;97.70
2363;DHT22;64265;51.664;7.626;2023-10-19T00:27:33;21.40;97.70
2363;DHT22;64265;51.664;7.626;2023-10-19T00:29:59;21.40;97.80
2363;DHT22;64265;51.664;7.626;2023-10-19T00:32:32;21.40;97.90
2363;DHT22;64265;51.664;7.626;2023-10-19T00:35:04;21.40;97.90
2363;DHT22;64265;51.664;7.626;2023-10-19T00:37:46;21.40;98.00
2363;DHT22;64265;51.664;7.626;2023-10-19T00:40:15;21.40;98.00
2363;DHT22;64265;51.664;7.626;2023-10-19T00:43:00;21.30;98.00
2363;DHT22;64265;51.664;7.626;2023-10-19T00:45:31;21.30;97.90
2363;DHT22;64265;51.664;7.626;2023-10-19T00:47:59;21.40;98.00
2363;DHT22;64265;51.664;7.626;2023-10-19T00:50:26;21.30;98.00
2363;DHT22;64265;51.664;7.626;2023-10-19T00:52:56;21.30;98.00
2363;DHT22;64265;51.664;7.626;2023-10-19T00:55:25;21.30;98.00
2363;DHT22;64265;51.664;7.626;2023-10-19T00:57:54;21.30;97.90
2363;DHT22;64265;51.664;7.626;2023-10-19T01:00:22;21.30;98.00
2363;DHT22;64265;51.664;7.626;2023-10-19T01:02:57;21.40;98.10
2363;DHT22;64265;51.664;7.626;2023-10-19T01:05:26;21.40;98.00
2363;DHT22;64265;51.664;7.626;2023-10-19T01:07:58;21.30;98.00
2363;DHT22;64265;51.664;7.626;2023-10-19T01:10:29;21.30;98.10
2363;DHT22;64265;51.664;7.626;2023-10-19T01:12:57;21.30;98.10
2363;DHT22;64265;51.664;7.626;2023-10-19T01:15:25;21.30;98.20
2363;DHT22;64265;51.664;7.626;2023-10-19T01:17:57;21.30;98.20
2363;DHT22;64265;51.664;7.626;2023-10-19T01:20:26;21.20;98.20
2363;DHT22;64265;51.664;7.626;2023-10-19T01:23:14;21.20;98.10
2363;DHT22;64265;51.664;7.626;2023-10-19T01:25:53;21.30;98.20
2363;DHT22;64265;51.664;7.626;2023-10-19T01:28:27;21.30;98.20
2363;DHT22;64265;51.664;7.626;2023-10-19T01:31:07;21.20;98.20
2363;DHT22;64265;51.664;7.626;2023-10-19T01:33:39;21.20;98.20
2363;DHT22;64265;51.664;7.626;2023-10-19T01:36:07;21.20;98.30
2363;DHT22;64265;51.664;7.626;2023-10-19T01:38:38;21.10;98.30
2363;DHT22;64265;51.664;7.626;2023-10-19T01:41:07;21.20;98.40
2363;DHT22;64265;51.664;7.626;2023-10-19T01:43:39;21.20;98.30
2363;DHT22;64265;51.664;7.626;2023-10-19T01:46:07;21.10;98.20
2363;DHT22;64265;51.664;7.626;2023-10-19T01:48:38;21.20;98.30
2363;DHT22;64265;51.664;7.626;2023-10-19T01:51:07;21.20;98.30
2363;DHT22;64265;51.664;7.626;2023-10-19T01:53:38;21.10;98.20
2363;DHT22;64265;51.664;7.626;2023-10-19T01:56:05;21.20;98.30
2363;DHT22;64265;51.664;7.626;2023-10-19T01:58:35;21.10;98.20
2363;DHT22;64265;51.664;7.626;2023-10-19T02:01:02;21.10;98.20
2363;DHT22;64265;51.664;7.626;2023-10-19T02:03:34;21.10;98.20
2363;DHT22;64265;51.664;7.626;2023-10-19T02:06:01;21.10;98.20
2363;DHT22;64265;51.664;7.626;2023-10-19T02:08:37;21.10;98.30
2363;DHT22;64265;51.664;7.626;2023-10-19T02:11:04;21.20;98.30
2363;DHT22;64265;51.664;7.626;2023-10-19T02:13:39;21.00;98.20
2363;DHT22;64265;51.664;7.626;2023-10-19T02:16:05;21.00;98.30
2363;DHT22;64265;51.664;7.626;2023-10-19T02:18:33;21.10;98.30
2363;DHT22;64265;51.664;7.626;2023-10-19T02:21:00;21.00;98.30
2363;DHT22;64265;51.664;7.626;2023-10-19T02:23:32;21.00;98.20
2363;DHT22;64265;51.664;7.626;2023-10-19T02:26:01;21.10;98.30
2363;DHT22;64265;51.664;7.626;2023-10-19T02:28:30;21.10;98.30
2363;DHT22;64265;51.664;7.626;2023-10-19T02:31:03;20.90;98.20
2363;DHT22;64265;51.664;7.626;2023-10-19T02:33:41;21.10;98.20
2363;DHT22;64265;51.664;7.626;2023-10-19T02:36:08;21.00;98.20
2363;DHT22;64265;51.664;7.626;2023-10-19T02:38:39;21.00;98.20
2363;DHT22;64265;51.664;7.626;2023-10-19T02:41:07;21.00;98.30
2363;DHT22;64265;51.664;7.626;2023-10-19T02:43:35;21.00;98.20
2363;DHT22;64265;51.664;7.626;2023-10-19T02:46:01;21.00;98.20
2363;DHT22;64265;51.664;7.626;2023-10-19T02:48:29;20.90;98.20
2363;DHT22;64265;51.664;7.626;2023-10-19T02:50:55;21.00;98.20
2363;DHT22;64265;51.664;7.626;2023-10-19T02:53:24;20.90;98.20
2363;DHT22;64265;51.664;7.626;2023-10-19T02:55:53;20.90;98.10
2363;DHT22;64265;51.664;7.626;2023-10-19T02:58:22;21.00;98.20
2363;DHT22;64265;51.664;7.626;2023-10-19T03:00:48;21.00;98.20
2363;DHT22;64265;51.664;7.626;2023-10-19T03:03:17;20.90;98.20
2363;DHT22;64265;51.664;7.626;2023-10-19T03:05:43;21.00;98.30
2363;DHT22;64265;51.664;7.626;2023-10-19T03:08:09;20.90;98.30
2363;DHT22;64265;51.664;7.626;2023-10-19T03:10:35;20.80;98.20
2363;DHT22;64265;51.664;7.626;2023-10-19T03:13:07;20.90;98.60
2363;DHT22;64265;51.664;7.626;2023-10-19T03:15:34;21.10;98.30
2363;DHT22;64265;51.664;7.626;2023-10-19T03:18:05;21.00;98.30
2363;DHT22;64265;51.664;7.626;2023-10-19T03:20:30;20.90;98.20
2363;DHT22;64265;51.664;7.626;2023-10-19T03:22:59;20.90;98.30
2363;DHT22;64265;51.664;7.626;2023-10-19T03:25:26;20.90;98.20
2363;DHT22;64265;51.664;7.626;2023-10-19T03:28:17;20.80;98.10
2363;DHT22;64265;51.664;7.626;2023-10-19T03:30:45;20.90;98.20
2363;DHT22;64265;51.664;7.626;2023-10-19T03:33:12;21.00;98.50
2363;DHT22;64265;51.664;7.626;2023-10-19T03:35:39;20.80;98.10
2363;DHT22;64265;51.664;7.626;2023-10-19T03:38:07;21.00;98.20
2363;DHT22;64265;51.664;7.626;2023-10-19T03:40:40;20.80;98.10
2363;DHT22;64265;51.664;7.626;2023-10-19T03:43:11;20.70;98.20
2363;DHT22;64265;51.664;7.626;2023-10-19T03:45:44;20.90;98.30
2363;DHT22;64265;51.664;7.626;2023-10-19T03:48:18;20.80;98.20
2363;DHT22;64265;51.664;7.626;2023-10-19T03:50:53;20.80;98.20
2363;DHT22;64265;51.664;7.626;2023-10-19T03:53:21;20.80;98.20
2363;DHT22;64265;51.664;7.626;2023-10-19T03:55:48;20.80;98.20
2363;DHT22;64265;51.664;7.626;2023-10-19T03:58:15;20.80;98.20
2363;DHT22;64265;51.664;7.626;2023-10-19T04:00:42;20.70;98.10
2363;DHT22;64265;51.664;7.626;2023-10-19T04:03:11;20.70;98.00
2363;DHT22;64265;51.664;7.626;2023-10-19T04:05:38;20.90;98.20
2363;DHT22;64265;51.664;7.626;2023-10-19T04:08:06;20.70;98.10
2363;DHT22;64265;51.664;7.626;2023-10-19T04:10:39;20.70;98.10
2363;DHT22;64265;51.664;7.626;2023-10-19T04:13:11;20.70;98.20
2363;DHT22;64265;51.664;7.626;2023-10-19T04:15:38;20.70;98.10
2363;DHT22;64265;51.664;7.626;2023-10-19T04:18:05;20.70;98.10
2363;DHT22;64265;51.664;7.626;2023-10-19T04:20:37;20.80;98.20
2363;DHT22;64265;51.664;7.626;2023-10-19T04:23:20;20.70;98.20
2363;DHT22;64265;51.664;7.626;2023-10-19T04:25:48;20.70;98.20
2363;DHT22;64265;51.664;7.626;2023-10-19T04:28:14;20.80;98.20
2363;DHT22;64265;51.664;7.626;2023-10-19T04:30:42;20.70;98.10
2363;DHT22;64265;51.664;7.626;2023-10-19T04:33:09;20.70;98.20
2363;DHT22;64265;51.664;7.626;2023-10-19T04:35:37;20.70;98.20
2363;DHT22;64265;51.664;7.626;2023-10-19T04:38:06;20.70;98.20
2363;DHT22;64265;51.664;7.626;2023-10-19T04:40:33;20.60;98.10
2363;DHT22;64265;51.664;7.626;2023-10-19T04:43:02;20.50;98.10
2363;DHT22;64265;51.664;7.626;2023-10-19T04:45:29;20.70;98.30
2363;DHT22;64265;51.664;7.626;2023-10-19T04:47:56;20.60;98.20
2363;DHT22;64265;51.664;7.626;2023-10-19T04:50:23;20.70;98.30
2363;DHT22;64265;51.664;7.626;2023-10-19T04:52:51;20.60;98.20
2363;DHT22;64265;51.664;7.626;2023-10-19T04:55:19;20.60;98.20
2363;DHT22;64265;51.664;7.626;2023-10-19T04:57:46;20.70;98.30
2363;DHT22;64265;51.664;7.626;2023-10-19T05:00:13;20.60;98.20
2363;DHT22;64265;51.664;7.626;2023-10-19T05:02:41;20.70;98.40
2363;DHT22;64265;51.664;7.626;2023-10-19T05:05:08;20.70;98.30
2363;DHT22;64265;51.664;7.626;2023-10-19T05:07:35;20.70;98.40
2363;DHT22;64265;51.664;7.626;2023-10-19T05:10:04;20.60;98.30
2363;DHT22;64265;51.664;7.626;2023-10-19T05:12:32;20.60;98.30
2363;DHT22;64265;51.664;7.626;2023-10-19T05:14:59;20.70;98.40
2363;DHT22;64265;51.664;7.626;2023-10-19T05:17:25;20.60;98.40
2363;DHT22;64265;51.664;7.626;2023-10-19T05:19:52;20.60;98.40
2363;DHT22;64265;51.664;7.626;2023-10-19T05:22:19;20.60;98.50
2363;DHT22;64265;51.664;7.626;2023-10-19T05:24:47;20.60;98.50
2363;DHT22;64265;51.664;7.626;2023-10-19T05:27:15;20.60;98.50
2363;DHT22;64265;51.664;7.626;2023-10-19T05:29:43;20.60;98.50
2363;DHT22;64265;51.664;7.626;2023-10-19T05:32:09;20.50;98.40
2363;DHT22;64265;51.664;7.626;2023-10-19T05:34:36;20.50;98.40
2363;DHT22;64265;51.664;7.626;2023-10-19T05:37:03;20.70;98.60
2363;DHT22;64265;51.664;7.626;2023-10-19T05:39:31;20.60;98.50
2363;DHT22;64265;51.664;7.626;2023-10-19T05:41:59;20.50;98.50
2363;DHT22;64265;51.664;7.626;2023-10-19T05:44:28;20.60;98.60
2363;DHT22;64265;51.664;7.626;2023-10-19T05:46:55;20.50;98.60
2363;DHT22;64265;51.664;7.626;2023-10-19T05:49:24;20.50;98.60
2363;DHT22;64265;51.664;7.626;2023-10-19T05:51:50;20.50;98.50
2363;DHT22;64265;51.664;7.626;2023-10-19T05:54:18;20.60;98.60
2363;DHT22;64265;51.664;7.626;2023-10-19T05:56:44;20.50;98.70
2363;DHT22;64265;51.664;7.626;2023-10-19T05:59:12;20.60;98.70
2363;DHT22;64265;51.664;7.626;2023-10-19T06:01:41;20.60;98.70
2363;DHT22;64265;51.664;7.626;2023-10-19T06:04:11;20.50;98.70
2363;DHT22;64265;51.664;7.626;2023-10-19T06:06:38;20.60;98.70
2363;DHT22;64265;51.664;7.626;2023-10-19T06:09:06;20.70;99.20
2363;DHT22;64265;51.664;7.626;2023-10-19T06:11:34;20.50;98.80
2363;DHT22;64265;51.664;7.626;2023-10-19T06:14:03;20.60;98.80
2363;DHT22;64265;51.664;7.626;2023-10-19T06:16:32;20.50;98.80
2363;DHT22;64265;51.664;7.626;2023-10-19T06:19:01;20.50;98.80
2363;DHT22;64265;51.664;7.626;2023-10-19T06:21:28;20.50;98.80
2363;DHT22;64265;51.664;7.626;2023-10-19T06:23:55;20.50;98.80
2363;DHT22;64265;51.664;7.626;2023-10-19T06:26:22;20.40;98.90
2363;DHT22;64265;51.664;7.626;2023-10-19T06:28:49;20.50;99.40
2363;DHT22;64265;51.664;7.626;2023-10-19T06:31:16;20.50;99.10
2363;DHT22;64265;51.664;7.626;2023-10-19T06:33:44;20.50;99.20
2363;DHT22;64265;51.664;7.626;2023-10-19T06:36:12;20.60;99.30
2363;DHT22;64265;51.664;7.626;2023-10-19T06:38:39;20.60;99.40
2363;DHT22;64265;51.664;7.626;2023-10-19T06:41:11;20.50;99.30
2363;DHT22;64265;51.664;7.626;2023-10-19T06:43:38;20.50;99.50
2363;DHT22;64265;51.664;7.626;2023-10-19T06:46:05;20.50;99.40
2363;DHT22;64265;51.664;7.626;2023-10-19T06:48:33;20.60;99.40
2363;DHT22;64265;51.664;7.626;2023-10-19T06:51:01;20.60;99.60
2363;DHT22;64265;51.664;7.626;2023-10-19T06:53:29;20.70;99.70
2363;DHT22;64265;51.664;7.626;2023-10-19T06:55:57;20.70;99.80
2363;DHT22;64265;51.664;7.626;2023-10-19T06:58:24;20.60;99.70
2363;DHT22;64265;51.664;7.626;2023-10-19T07:00:52;20.70;99.70
2363;DHT22;64265;51.664;7.626;2023-10-19T07:03:25;20.70;99.80
2363;DHT22;64265;51.664;7.626;2023-10-19T07:05:53;20.70;99.80
2363;DHT22;64265;51.664;7.626;2023-10-19T07:08:20;20.70;99.70
2363;DHT22;64265;51.664;7.626;2023-10-19T07:10:49;20.70;99.70
2363;DHT22;64265;51.664;7.626;2023-10-19T07:13:16;20.80;99.80
2363;DHT22;64265;51.664;7.626;2023-10-19T07:15:45;20.80;99.80
2363;DHT22;64265;51.664;7.626;2023-10-19T07:18:12;20.80;99.90
2363;DHT22;64265;51.664;7.626;2023-10-19T07:20:39;20.80;99.90
2363;DHT22;64265;51.664;7.626;2023-10-19T07:23:08;20.80;99.90
2363;DHT22;64265;51.664;7.626;2023-10-19T07:25:44;20.90;99.90
2363;DHT22;64265;51.664;7.626;2023-10-19T07:28:12;20.90;99.90
2363;DHT22;64265;51.664;7.626;2023-10-19T07:30:39;20.90;99.90
2363;DHT22;64265;51.664;7.626;2023-10-19T07:33:07;20.80;99.90
2363;DHT22;64265;51.664;7.626;2023-10-19T07:35:35;20.90;99.90
2363;DHT22;64265;51.664;7.626;2023-10-19T07:38:03;20.90;99.90
2363;DHT22;64265;51.664;7.626;2023-10-19T07:40:32;20.90;99.90
2363;DHT22;64265;51.664;7.626;2023-10-19T07:42:59;20.90;99.80
2363;DHT22;64265;51.664;7.626;2023-10-19T07:45:27;20.90;99.80
2363;DHT22;64265;51.664;7.626;2023-10-19T07:47:54;21.00;99.90
2363;DHT22;64265;51.664;7.626;2023-10-19T07:50:21;21.10;99.90
2363;DHT22;64265;51.664;7.626;2023-10-19T07:52:50;20.90;99.90
2363;DHT22;64265;51.664;7.626;2023-10-19T07:55:17;20.90;99.90
2363;DHT22;64265;51.664;7.626;2023-10-19T07:57:45;20.90;99.90
2363;DHT22;64265;51.664;7.626;2023-10-19T08:00:12;20.90;99.90
2363;DHT22;64265;51.664;7.626;2023-10-19T08:02:41;20.90;99.90
2363;DHT22;64265;51.664;7.626;2023-10-19T08:05:11;20.90;99.90
2363;DHT22;64265;51.664;7.626;2023-10-19T08:07:38;21.00;99.90
2363;DHT22;64265;51.664;7.626;2023-10-19T08:10:08;21.10;99.90
2363;DHT22;64265;51.664;7.626;2023-10-19T08:12:36;21.00;99.90
2363;DHT22;64265;51.664;7.626;2023-10-19T08:15:03;21.10;99.90
2363;DHT22;64265;51.664;7.626;2023-10-19T08:17:32;21.10;99.90
2363;DHT22;64265;51.664;7.626;2023-10-19T08:20:01;21.00;99.90
2363;DHT22;64265;51.664;7.626;2023-10-19T08:22:29;21.10;99.90
2363;DHT22;64265;51.664;7.626;2023-10-19T08:24:56;21.10;99.90
2363;DHT22;64265;51.664;7.626;2023-10-19T08:27:23;21.10;99.90
2363;DHT22;64265;51.664;7.626;2023-10-19T08:29:50;21.10;99.90
2363;DHT22;64265;51.664;7.626;2023-10-19T08:32:17;21.10;99.90
2363;DHT22;64265;51.664;7.626;2023-10-19T08:34:44;21.20;99.90
2363;DHT22;64265;51.664;7.626;2023-10-19T08:37:12;21.30;99.90
2363;DHT22;64265;51.664;7.626;2023-10-19T08:39:38;21.20;99.90
2363;DHT22;64265;51.664;7.626;2023-10-19T08:42:06;21.20;99.90
2363;DHT22;64265;51.664;7.626;2023-10-19T08:44:33;21.20;99.90
2363;DHT22;64265;51.664;7.626;2023-10-19T08:46:59;21.20;99.90
2363;DHT22;64265;51.664;7.626;2023-10-19T08:49:26;21.30;99.90
2363;DHT22;64265;51.664;7.626;2023-10-19T08:51:54;21.30;99.90
2363;DHT22;64265;51.664;7.626;2023-10-19T08:54:22;21.20;99.90
2363;DHT22;64265;51.664;7.626;2023-10-19T08:56:49;21.20;99.90
2363;DHT22;64265;51.664;7.626;2023-10-19T08:59:16;21.20;99.90
2363;DHT22;64265;51.664;7.626;2023-10-19T09:01:43;21.20;99.90
2363;DHT22;64265;51.664;7.626;2023-10-19T09:04:10;21.20;99.90
2363;DHT22;64265;51.664;7.626;2023-10-19T09:06:37;21.20;99.90
2363;DHT22;64265;51.664;7.626;2023-10-19T09:09:08;21.30;99.90
2363;DHT22;64265;51.664;7.626;2023-10-19T09:11:40;21.30;99.90
2363;DHT22;64265;51.664;7.626;2023-10-19T09:14:07;21.30;99.90
2363;DHT22;64265;51.664;7.626;2023-10-19T09:16:34;21.30;99.90
2363;DHT22;64265;51.664;7.626;2023-10-19T09:19:02;21.30;99.90
2363;DHT22;64265;51.664;7.626;2023-10-19T09:21:29;21.30;99.90
2363;DHT22;64265;51.664;7.626;2023-10-19T09:23:58;21.30;99.90
2363;DHT22;64265;51.664;7.626;2023-10-19T09:26:25;21.30;99.90
2363;DHT22;64265;51.664;7.626;2023-10-19T09:28:53;21.40;99.90
2363;DHT22;64265;51.664;7.626;2023-10-19T09:31:20;21.40;99.90
2363;DHT22;64265;51.664;7.626;2023-10-19T09:33:50;21.40;99.90
2363;DHT22;64265;51.664;7.626;2023-10-19T09:36:18;21.30;99.90
2363;DHT22;64265;51.664;7.626;2023-10-19T09:38:48;21.30;99.90
2363;DHT22;64265;51.664;7.626;2023-10-19T09:41:17;21.40;99.90
2363;DHT22;64265;51.664;7.626;2023-10-19T09:43:45;21.30;99.90
2363;DHT22;64265;51.664;7.626;2023-10-19T09:46:21;21.50;99.90
2363;DHT22;64265;51.664;7.626;2023-10-19T09:48:48;21.40;99.90
2363;DHT22;64265;51.664;7.626;2023-10-19T09:51:16;21.40;99.90
2363;DHT22;64265;51.664;7.626;2023-10-19T09:53:48;21.50;99.90
2363;DHT22;64265;51.664;7.626;2023-10-19T09:56:20;21.40;99.90
2363;DHT22;64265;51.664;7.626;2023-10-19T09:58:49;21.40;99.90
2363;DHT22;64265;51.664;7.626;2023-10-19T10:01:18;21.40;99.90
2363;DHT22;64265;51.664;7.626;2023-10-19T10:03:48;21.50;99.90
2363;DHT22;64265;51.664;7.626;2023-10-19T10:06:16;21.40;99.90
2363;DHT22;64265;51.664;7.626;2023-10-19T10:08:46;21.40;99.90
2363;DHT22;64265;51.664;7.626;2023-10-19T10:11:18;21.60;99.90
2363;DHT22;64265;51.664;7.626;2023-10-19T10:13:46;21.50;99.90
2363;DHT22;64265;51.664;7.626;2023-10-19T10:16:18;21.60;99.90
2363;DHT22;64265;51.664;7.626;2023-10-19T10:18:50;21.50;99.90
2363;DHT22;64265;51.664;7.626;2023-10-19T10:21:19;21.50;99.90
2363;DHT22;64265;51.664;7.626;2023-10-19T10:23:48;21.60;99.90
2363;DHT22;64265;51.664;7.626;2023-10-19T10:26:16;21.50;99.90
2363;DHT22;64265;51.664;7.626;2023-10-19T10:28:46;21.50;99.90
2363;DHT22;64265;51.664;7.626;2023-10-19T10:31:15;21.70;99.90
2363;DHT22;64265;51.664;7.626;2023-10-19T10:33:48;21.60;99.90
2363;DHT22;64265;51.664;7.626;2023-10-19T10:36:16;21.50;99.90
2363;DHT22;64265;51.664;7.626;2023-10-19T10:38:43;21.70;99.90
2363;DHT22;64265;51.664;7.626;2023-10-19T10:41:10;21.60;99.90
2363;DHT22;64265;51.664;7.626;2023-10-19T10:43:54;21.60;99.90
2363;DHT22;64265;51.664;7.626;2023-10-19T10:46:22;21.70;99.90
2363;DHT22;64265;51.664;7.626;2023-10-19T10:48:51;21.60;99.90
2363;DHT22;64265;51.664;7.626;2023-10-19T10:51:19;21.70;99.90
2363;DHT22;64265;51.664;7.626;2023-10-19T10:53:47;21.80;99.90
2363;DHT22;64265;51.664;7.626;2023-10-19T10:56:14;21.70;99.90
2363;DHT22;64265;51.664;7.626;2023-10-19T10:58:41;21.80;99.90
2363;DHT22;64265;51.664;7.626;2023-10-19T11:01:08;21.80;99.90
2363;DHT22;64265;51.664;7.626;2023-10-19T11:03:35;21.80;99.90
2363;DHT22;64265;51.664;7.626;2023-10-19T11:06:07;21.80;99.90
2363;DHT22;64265;51.664;7.626;2023-10-19T11:08:35;21.80;99.90
2363;DHT22;64265;51.664;7.626;2023-10-19T11:11:03;21.80;99.90
2363;DHT22;64265;51.664;7.626;2023-10-19T11:13:31;21.80;99.90
2363;DHT22;64265;51.664;7.626;2023-10-19T11:16:02;21.90;99.90
2363;DHT22;64265;51.664;7.626;2023-10-19T11:18:30;21.90;99.90
2363;DHT22;64265;51.664;7.626;2023-10-19T11:20:58;22.00;99.90
2363;DHT22;64265;51.664;7.626;2023-10-19T11:23:42;22.00;99.90
2363;DHT22;64265;51.664;7.626;2023-10-19T11:26:09;22.00;99.90
2363;DHT22;64265;51.664;7.626;2023-10-19T11:28:37;22.10;99.90
2363;DHT22;64265;51.664;7.626;2023-10-19T11:31:17;22.10;99.90
2363;DHT22;64265;51.664;7.626;2023-10-19T11:33:45;22.20;99.90
2363;DHT22;64265;51.664;7.626;2023-10-19T11:36:14;22.20;99.90
2363;DHT22;64265;51.664;7.626;2023-10-19T11:38:43;22.20;99.90
2363;DHT22;64265;51.664;7.626;2023-10-19T11:41:10;22.20;99.90
2363;DHT22;64265;51.664;7.626;2023-10-19T11:43:38;22.20;99.90
2363;DHT22;64265;51.664;7.626;2023-10-19T11:46:05;22.30;99.90
2363;DHT22;64265;51.664;7.626;2023-10-19T11:48:32;22.30;99.90
2363;DHT22;64265;51.664;7.626;2023-10-19T11:51:01;22.20;99.90
2363;DHT22;64265;51.664;7.626;2023-10-19T11:53:33;22.30;99.90
2363;DHT22;64265;51.664;7.626;2023-10-19T11:56:03;22.20;99.90
2363;DHT22;64265;51.664;7.626;2023-10-19T11:58:31;22.30;99.90
2363;DHT22;64265;51.664;7.626;2023-10-19T12:01:00;22.30;99.90
2363;DHT22;64265;51.664;7.626;2023-10-19T12:03:27;22.30;99.90
2363;DHT22;64265;51.664;7.626;2023-10-19T12:05:53;22.30;99.90
2363;DHT22;64265;51.664;7.626;2023-10-19T12:08:21;22.30;99.90
2363;DHT22;64265;51.664;7.626;2023-10-19T12:10:49;22.30;99.90
2363;DHT22;64265;51.664;7.626;2023-10-19T12:13:17;22.40;99.90
2363;DHT22;64265;51.664;7.626;2023-10-19T12:15:44;22.40;99.90
2363;DHT22;64265;51.664;7.626;2023-10-19T12:18:17;22.30;99.80
2363;DHT22;64265;51.664;7.626;2023-10-19T12:20:44;22.30;99.90
2363;DHT22;64265;51.664;7.626;2023-10-19T12:23:11;22.40;99.70
2363;DHT22;64265;51.664;7.626;2023-10-19T12:25:38;22.30;99.60
2363;DHT22;64265;51.664;7.626;2023-10-19T12:28:05;22.30;99.60
2363;DHT22;64265;51.664;7.626;2023-10-19T12:30:34;22.30;99.50
2363;DHT22;64265;51.664;7.626;2023-10-19T12:33:02;22.40;99.60
2363;DHT22;64265;51.664;7.626;2023-10-19T12:35:33;22.40;99.60
2363;DHT22;64265;51.664;7.626;2023-10-19T12:38:10;22.30;99.50
2363;DHT22;64265;51.664;7.626;2023-10-19T12:40:42;22.30;99.50
2363;DHT22;64265;51.664;7.626;2023-10-19T12:43:10;22.30;99.50
2363;DHT22;64265;51.664;7.626;2023-10-19T12:45:39;22.30;99.50
2363;DHT22;64265;51.664;7.626;2023-10-19T12:48:07;22.40;99.50
2363;DHT22;64265;51.664;7.626;2023-10-19T12:50:36;22.30;99.50
2363;DHT22;64265;51.664;7.626;2023-10-19T12:53:03;22.30;99.50
2363;DHT22;64265;51.664;7.626;2023-10-19T12:55:31;22.30;99.40
2363;DHT22;64265;51.664;7.626;2023-10-19T12:57:58;22.30;99.40
2363;DHT22;64265;51.664;7.626;2023-10-19T13:00:32;22.30;99.40
2363;DHT22;64265;51.664;7.626;2023-10-19T13:03:08;22.30;99.50
2363;DHT22;64265;51.664;7.626;2023-10-19T13:05:35;22.30;99.50
2363;DHT22;64265;51.664;7.626;2023-10-19T13:08:03;22.30;99.40
2363;DHT22;64265;51.664;7.626;2023-10-19T13:10:33;22.30;99.50
2363;DHT22;64265;51.664;7.626;2023-10-19T13:13:00;22.30;99.50
2363;DHT22;64265;51.664;7.626;2023-10-19T13:15:29;22.30;99.50
2363;DHT22;64265;51.664;7.626;2023-10-19T13:17:56;22.20;99.40
2363;DHT22;64265;51.664;7.626;2023-10-19T13:20:27;22.30;99.60
2363;DHT22;64265;51.664;7.626;2023-10-19T13:22:59;22.30;99.60
2363;DHT22;64265;51.664;7.626;2023-10-19T13:25:26;22.20;99.80
2363;DHT22;64265;51.664;7.626;2023-10-19T13:28:06;22.20;99.80
2363;DHT22;64265;51.664;7.626;2023-10-19T13:30:36;22.30;99.90
2363;DHT22;64265;51.664;7.626;2023-10-19T13:33:04;22.30;99.90
2363;DHT22;64265;51.664;7.626;2023-10-19T13:35:33;22.20;99.90
2363;DHT22;64265;51.664;7.626;2023-10-19T13:38:00;22.20;99.90
2363;DHT22;64265;51.664;7.626;2023-10-19T13:40:27;22.20;99.90
2363;DHT22;64265;51.664;7.626;2023-10-19T13:42:56;22.30;99.90
2363;DHT22;64265;51.664;7.626;2023-10-19T13:45:23;22.30;99.90
2363;DHT22;64265;51.664;7.626;2023-10-19T13:47:50;22.20;99.90
2363;DHT22;64265;51.664;7.626;2023-10-19T13:50:20;22.20;99.90
2363;DHT22;64265;51.664;7.626;2023-10-19T13:52:50;22.30;99.90
2363;DHT22;64265;51.664;7.626;2023-10-19T13:55:17;22.10;99.90
2363;DHT22;64265;51.664;7.626;2023-10-19T13:57:46;22.30;99.90
2363;DHT22;64265;51.664;7.626;2023-10-19T14:00:14;22.20;99.90
2363;DHT22;64265;51.664;7.626;2023-10-19T14:02:49;22.20;99.90
2363;DHT22;64265;51.664;7.626;2023-10-19T14:05:16;22.30;99.90
2363;DHT22;64265;51.664;7.626;2023-10-19T14:07:43;22.20;99.90
2363;DHT22;64265;51.664;7.626;2023-10-19T14:10:11;22.20;99.90
2363;DHT22;64265;51.664;7.626;2023-10-19T14:12:38;22.20;99.90
2363;DHT22;64265;51.664;7.626;2023-10-19T14:15:11;22.30;99.90
2363;DHT22;64265;51.664;7.626;2023-10-19T14:17:37;22.20;96.80
2363;DHT22;64265;51.664;7.626;2023-10-19T14:20:05;22.20;96.80
2363;DHT22;64265;51.664;7.626;2023-10-19T14:22:38;22.20;96.80
2363;DHT22;64265;51.664;7.626;2023-10-19T14:25:05;22.20;97.00
2363;DHT22;64265;51.664;7.626;2023-10-19T14:27:36;22.30;97.10
2363;DHT22;64265;51.664;7.626;2023-10-19T14:30:04;22.40;97.10
2363;DHT22;64265;51.664;7.626;2023-10-19T14:32:31;22.40;97.10
2363;DHT22;64265;51.664;7.626;2023-10-19T14:34:58;22.40;97.00
2363;DHT22;64265;51.664;7.626;2023-10-19T14:37:25;22.50;97.00
2363;DHT22;64265;51.664;7.626;2023-10-19T14:39:51;22.40;96.90
2363;DHT22;64265;51.664;7.626;2023-10-19T14:42:18;22.50;96.90
2363;DHT22;64265;51.664;7.626;2023-10-19T14:44:47;22.50;96.90
2363;DHT22;64265;51.664;7.626;2023-10-19T14:47:13;22.50;96.90
2363;DHT22;64265;51.664;7.626;2023-10-19T14:49:41;22.40;97.00
2363;DHT22;64265;51.664;7.626;2023-10-19T14:52:07;22.50;97.20
2363;DHT22;64265;51.664;7.626;2023-10-19T14:54:34;22.50;97.30
2363;DHT22;64265;51.664;7.626;2023-10-19T14:57:01;22.50;97.40
2363;DHT22;64265;51.664;7.626;2023-10-19T14:59:27;22.60;97.30
2363;DHT22;64265;51.664;7.626;2023-10-19T15:01:56;22.60;96.90
2363;DHT22;64265;51.664;7.626;2023-10-19T15:04:22;22.60;96.80
2363;DHT22;64265;51.664;7.626;2023-10-19T15:06:49;22.70;97.20
2363;DHT22;64265;51.664;7.626;2023-10-19T15:09:17;22.60;97.40
2363;DHT22;64265;51.664;7.626;2023-10-19T15:11:50;22.60;97.30
2363;DHT22;64265;51.664;7.626;2023-10-19T15:14:19;22.60;97.40
2363;DHT22;64265;51.664;7.626;2023-10-19T15:16:46;22.70;97.50
2363;DHT22;64265;51.664;7.626;2023-10-19T15:19:14;22.70;97.60
2363;DHT22;64265;51.664;7.626;2023-10-19T15:21:44;22.70;97.70
2363;DHT22;64265;51.664;7.626;2023-10-19T15:24:10;22.70;97.70
2363;DHT22;64265;51.664;7.626;2023-10-19T15:26:38;22.70;97.80
2363;DHT22;64265;51.664;7.626;2023-10-19T15:29:05;22.70;97.90
2363;DHT22;64265;51.664;7.626;2023-10-19T15:31:31;22.70;98.20
2363;DHT22;64265;51.664;7.626;2023-10-19T15:33:59;22.80;98.50
2363;DHT22;64265;51.664;7.626;2023-10-19T15:36:29;22.80;98.60
2363;DHT22;64265;51.664;7.626;2023-10-19T15:38:56;22.80;99.00
2363;DHT22;64265;51.664;7.626;2023-10-19T15:41:23;22.80;98.90
2363;DHT22;64265;51.664;7.626;2023-10-19T15:43:50;22.80;99.30
2363;DHT22;64265;51.664;7.626;2023-10-19T15:46:16;22.80;99.30
2363;DHT22;64265;51.664;7.626;2023-10-19T15:48:48;22.80;99.40
2363;DHT22;64265;51.664;7.626;2023-10-19T15:51:15;23.00;99.90
2363;DHT22;64265;51.664;7.626;2023-10-19T15:53:43;22.80;99.90